createdAt,value
2022-11-07T00:02:17.736Z,83.18
2022-11-07T00:04:46.114Z,74.03
2022-11-07T00:07:16.203Z,78.45
2022-11-07T00:09:44.930Z,79.00
2022-11-07T00:12:13.666Z,78.13
2022-11-07T00:14:42.289Z,78.03
2022-11-07T00:17:10.877Z,72.85
2022-11-07T00:19:39.216Z,73.10
2022-11-07T00:22:07.758Z,68.13
2022-11-07T00:24:37.809Z,74.38
2022-11-07T00:27:06.586Z,73.35
2022-11-07T00:29:35.229Z,81.97
2022-11-07T00:32:03.811Z,62.08
2022-11-07T00:34:31.998Z,65.22
2022-11-07T00:37:00.809Z,66.47
2022-11-07T00:39:29.631Z,64.45
2022-11-07T00:41:59.619Z,63.45
2022-11-07T00:44:28.172Z,68.03
2022-11-07T00:46:56.556Z,64.78
2022-11-07T00:49:25.275Z,54.97
2022-11-07T00:51:53.870Z,62.97
2022-11-07T00:54:22.563Z,59.33
2022-11-07T00:56:51.296Z,59.65
2022-11-07T00:59:21.362Z,61.42
2022-11-07T01:01:49.827Z,62.22
2022-11-07T01:04:36.024Z,53.33
2022-11-07T01:07:06.991Z,51.25
2022-11-07T01:09:35.999Z,49.70
2022-11-07T01:12:05.961Z,58.15
2022-11-07T01:14:36.007Z,53.40
2022-11-07T01:17:04.668Z,50.38
2022-11-07T01:19:32.932Z,53.50
2022-11-07T01:22:01.485Z,50.63
2022-11-07T01:24:30.068Z,54.30
2022-11-07T01:26:58.660Z,54.85
2022-11-07T01:29:27.285Z,51.72
2022-11-07T01:31:57.115Z,56.72
2022-11-07T01:34:25.776Z,51.47
2022-11-07T01:36:54.372Z,52.65
2022-11-07T01:39:22.970Z,55.35
2022-11-07T01:41:51.631Z,61.53
2022-11-07T01:44:57.586Z,56.90
2022-11-07T01:47:29.605Z,58.60
2022-11-07T01:49:58.659Z,59.70
2022-11-07T01:52:31.403Z,56.80
2022-11-07T01:55:03.241Z,61.38
2022-11-07T01:57:34.828Z,56.10
2022-11-07T02:00:07.281Z,47.88
2022-11-07T02:02:37.914Z,54.22
2022-11-07T02:05:08.824Z,63.58
2022-11-07T02:07:37.673Z,74.63
2022-11-07T02:10:07.482Z,59.45
2022-11-07T02:12:36.072Z,61.45
2022-11-07T02:15:05.098Z,63.63
2022-11-07T02:17:33.763Z,55.92
2022-11-07T02:20:03.739Z,57.78
2022-11-07T02:22:37.513Z,56.30
2022-11-07T02:25:09.610Z,60.60
2022-11-07T02:27:39.484Z,62.33
2022-11-07T02:30:10.719Z,67.03
2022-11-07T02:32:39.646Z,61.00
2022-11-07T02:35:34.762Z,55.78
2022-11-07T02:38:03.195Z,61.67
2022-11-07T02:40:33.509Z,67.88
2022-11-07T02:45:32.881Z,69.43
2022-11-07T02:48:01.775Z,66.40
2022-11-07T02:50:30.339Z,70.35
2022-11-07T02:52:58.988Z,70.15
2022-11-07T02:55:27.294Z,71.47
2022-11-07T02:57:57.258Z,71.05
2022-11-07T03:00:26.072Z,75.75
2022-11-07T03:02:54.940Z,77.70
2022-11-07T03:05:23.769Z,67.03
2022-11-07T03:07:52.096Z,74.07
2022-11-07T03:10:20.690Z,70.65
2022-11-07T03:12:49.407Z,76.85
2022-11-07T03:15:19.609Z,71.00
2022-11-07T03:17:48.275Z,74.82
2022-11-07T03:20:16.853Z,78.05
2022-11-07T03:22:45.555Z,80.93
2022-11-07T03:25:14.177Z,74.88
2022-11-07T03:27:47.748Z,82.65
2022-11-07T03:30:16.904Z,65.38
2022-11-07T03:32:46.983Z,71.90
2022-11-07T03:35:15.729Z,78.22
2022-11-07T03:37:46.637Z,75.45
2022-11-07T03:40:15.298Z,84.47
2022-11-07T03:42:44.408Z,87.38
2022-11-07T03:45:14.192Z,88.70
2022-11-07T03:47:44.240Z,60.88
2022-11-07T03:50:16.692Z,87.38
2022-11-07T03:52:45.361Z,64.53
2022-11-07T03:55:16.195Z,98.25
2022-11-07T03:57:45.453Z,105.57
2022-11-07T04:00:15.864Z,113.30
2022-11-07T04:05:14.977Z,113.50
2022-11-07T04:07:43.210Z,119.20
2022-11-07T04:10:11.853Z,117.75
2022-11-07T04:12:57.901Z,117.97
2022-11-07T04:15:43.967Z,134.57
2022-11-07T04:18:12.574Z,110.40
2022-11-07T04:20:42.588Z,131.20
2022-11-07T04:23:11.220Z,119.57
2022-11-07T04:25:56.901Z,122.70
2022-11-07T04:28:25.599Z,116.32
2022-11-07T04:30:54.188Z,123.93
2022-11-07T04:33:22.805Z,123.85
2022-11-07T04:35:52.906Z,115.00
2022-11-07T04:38:21.591Z,116.10
2022-11-07T04:40:54.552Z,110.30
2022-11-07T04:43:23.458Z,86.20
2022-11-07T04:45:52.347Z,128.25
2022-11-07T04:48:21.313Z,121.90
2022-11-07T04:50:50.226Z,129.43
2022-11-07T04:53:20.484Z,139.35
2022-11-07T04:55:49.008Z,134.75
2022-11-07T04:58:17.560Z,131.52
2022-11-07T05:00:46.183Z,143.73
2022-11-07T05:03:15.219Z,146.27
2022-11-07T05:05:44.117Z,150.57
2022-11-07T05:08:12.755Z,135.07
2022-11-07T05:10:42.777Z,102.40
2022-11-07T05:15:40.129Z,128.18
2022-11-07T05:18:08.808Z,134.23
2022-11-07T05:20:38.537Z,115.30
2022-11-07T05:23:12.893Z,56.20
2022-11-07T05:25:43.370Z,113.57
2022-11-07T05:28:12.599Z,122.45
2022-11-07T05:30:42.229Z,121.55
2022-11-07T05:33:11.933Z,118.90
2022-11-07T05:35:40.784Z,104.72
2022-11-07T05:38:09.692Z,88.75
2022-11-07T05:40:39.017Z,79.45
2022-11-07T05:43:10.814Z,100.20
2022-11-07T05:45:41.079Z,77.53
2022-11-07T05:48:11.311Z,106.65
2022-11-07T05:50:40.735Z,92.15
2022-11-07T05:53:09.494Z,94.70
2022-11-07T05:55:37.772Z,97.68
2022-11-07T05:58:11.545Z,78.72
2022-11-07T06:00:40.380Z,93.72
2022-11-07T06:03:09.532Z,63.80
2022-11-07T06:05:39.044Z,79.80
2022-11-07T06:08:08.622Z,81.03
2022-11-07T06:10:38.207Z,65.65
2022-11-07T06:13:08.425Z,44.22
2022-11-07T06:15:39.115Z,73.70
2022-11-07T06:18:09.737Z,76.60
2022-11-07T06:20:38.609Z,74.38
2022-11-07T06:23:07.629Z,55.15
2022-11-07T06:25:36.724Z,79.32
2022-11-07T06:28:06.839Z,67.03
2022-11-07T06:30:35.639Z,49.58
2022-11-07T06:33:07.576Z,76.18
2022-11-07T06:35:36.680Z,70.22
2022-11-07T06:38:06.617Z,57.25
2022-11-07T06:40:34.926Z,66.57
2022-11-07T06:43:10.557Z,58.83
2022-11-07T06:45:40.724Z,73.40
2022-11-07T06:48:11.379Z,50.60
2022-11-07T06:50:40.404Z,65.47
2022-11-07T06:53:11.230Z,68.03
2022-11-07T06:55:40.109Z,74.35
2022-11-07T06:58:09.199Z,45.42
2022-11-07T07:00:38.454Z,47.75
2022-11-07T07:03:07.413Z,65.45
2022-11-07T07:05:40.691Z,63.58
2022-11-07T07:08:11.551Z,63.70
2022-11-07T07:10:42.686Z,51.08
2022-11-07T07:13:11.431Z,55.30
2022-11-07T07:15:50.477Z,47.15
2022-11-07T07:18:20.057Z,59.95
2022-11-07T07:20:50.731Z,57.50
2022-11-07T07:23:20.349Z,58.33
2022-11-07T07:25:49.429Z,61.20
2022-11-07T07:28:18.167Z,59.95
2022-11-07T07:30:51.649Z,60.25
2022-11-07T07:33:20.951Z,49.17
2022-11-07T07:35:51.095Z,53.85
2022-11-07T07:38:19.786Z,62.08
2022-11-07T07:40:48.045Z,50.88
2022-11-07T07:43:16.958Z,52.20
2022-11-07T07:45:45.781Z,49.08
2022-11-07T07:48:14.468Z,61.67
2022-11-07T07:50:43.155Z,53.85
2022-11-07T07:53:13.257Z,50.45
2022-11-07T07:55:41.624Z,45.78
2022-11-07T07:58:10.493Z,48.97
2022-11-07T08:00:39.233Z,51.47
2022-11-07T08:03:09.762Z,50.33
2022-11-07T08:08:08.650Z,45.00
2022-11-07T08:10:43.048Z,47.90
2022-11-07T08:13:12.057Z,44.03
2022-11-07T08:15:41.005Z,47.28
2022-11-07T08:18:09.611Z,41.45
2022-11-07T08:20:38.172Z,48.92
2022-11-07T08:23:12.978Z,41.38
2022-11-07T08:25:51.179Z,46.08
2022-11-07T08:28:21.359Z,45.70
2022-11-07T08:30:56.983Z,39.35
2022-11-07T08:33:25.927Z,38.78
2022-11-07T08:35:55.584Z,42.70
2022-11-07T08:38:24.258Z,36.85
2022-11-07T08:40:54.148Z,31.95
2022-11-07T08:43:23.244Z,36.22
2022-11-07T08:45:51.836Z,35.30
2022-11-07T08:48:20.542Z,32.53
2022-11-07T08:50:53.395Z,39.05
2022-11-07T08:53:22.271Z,38.22
2022-11-07T08:55:50.697Z,38.95
2022-11-07T08:58:23.618Z,42.80
2022-11-07T09:00:55.978Z,36.75
2022-11-07T09:03:44.410Z,33.03
2022-11-07T09:06:13.338Z,34.83
2022-11-07T09:08:42.026Z,31.50
2022-11-07T09:11:10.905Z,28.02
2022-11-07T09:13:40.842Z,33.05
2022-11-07T09:16:09.856Z,24.77
2022-11-07T09:18:38.624Z,20.65
2022-11-07T09:21:07.564Z,20.42
2022-11-07T09:23:36.277Z,34.45
2022-11-07T09:26:04.845Z,23.45
2022-11-07T09:28:33.338Z,19.98
2022-11-07T09:31:04.978Z,23.52
2022-11-07T09:33:34.096Z,18.08
2022-11-07T09:36:03.446Z,24.25
2022-11-07T09:38:32.334Z,22.95
2022-11-07T09:41:06.510Z,22.33
2022-11-07T09:43:58.751Z,21.70
2022-11-07T09:46:34.867Z,22.85
2022-11-07T09:49:11.137Z,21.98
2022-11-07T09:51:41.342Z,24.50
2022-11-07T09:54:13.925Z,19.50
2022-11-07T09:56:44.233Z,18.30
2022-11-07T09:59:20.750Z,22.60
2022-11-07T10:01:50.749Z,22.88
2022-11-07T10:06:59.070Z,21.65
2022-11-07T10:09:35.063Z,15.52
2022-11-07T10:12:08.884Z,19.80
2022-11-07T10:14:47.179Z,15.43
2022-11-07T10:17:22.785Z,16.20
2022-11-07T10:20:05.542Z,16.25
2022-11-07T10:22:47.158Z,23.65
2022-11-07T10:25:22.944Z,19.65
2022-11-07T10:27:55.269Z,18.17
2022-11-07T10:30:23.904Z,24.73
2022-11-07T10:32:59.861Z,19.05
2022-11-07T10:35:31.012Z,15.65
2022-11-07T10:38:01.557Z,21.05
2022-11-07T10:40:38.620Z,19.73
2022-11-07T10:43:14.240Z,15.93
2022-11-07T10:45:43.599Z,18.52
2022-11-07T10:48:14.636Z,15.48
2022-11-07T10:50:52.522Z,18.17
2022-11-07T10:53:23.315Z,19.73
2022-11-07T10:55:53.191Z,18.88
2022-11-07T10:58:23.137Z,16.73
2022-11-07T11:01:03.209Z,19.85
2022-11-07T11:03:44.257Z,17.20
2022-11-07T11:06:23.416Z,18.98
2022-11-07T11:08:53.637Z,15.75
2022-11-07T11:11:33.302Z,14.73
2022-11-07T11:14:06.769Z,12.35
2022-11-07T11:16:37.235Z,16.42
2022-11-07T11:21:43.438Z,18.60
2022-11-07T11:24:21.665Z,15.23
2022-11-07T11:26:51.612Z,18.02
2022-11-07T11:29:27.650Z,17.92
2022-11-07T11:31:57.289Z,20.67
2022-11-07T11:34:33.140Z,17.25
2022-11-07T11:37:06.558Z,16.88
2022-11-07T11:39:40.483Z,17.55
2022-11-07T11:42:16.020Z,12.55
2022-11-07T11:44:45.439Z,17.38
2022-11-07T11:47:17.576Z,15.82
2022-11-07T11:49:50.002Z,16.80
2022-11-07T11:52:20.426Z,17.85
2022-11-07T11:57:20.176Z,16.20
2022-11-07T11:59:59.204Z,15.35
2022-11-07T12:03:06.430Z,14.95
2022-11-07T12:06:00.526Z,16.42
2022-11-07T12:08:40.997Z,17.88
2022-11-07T12:11:18.074Z,14.85
2022-11-07T12:13:52.857Z,17.15
2022-11-07T12:16:28.670Z,16.60
2022-11-07T12:19:01.423Z,15.55
2022-11-07T12:21:33.829Z,20.60
2022-11-07T12:24:12.284Z,14.85
2022-11-07T12:26:45.076Z,17.05
2022-11-07T12:29:24.019Z,14.07
2022-11-07T12:32:02.779Z,14.57
2022-11-07T12:34:42.978Z,14.65
2022-11-07T12:37:25.291Z,14.70
2022-11-07T12:40:06.812Z,14.57
2022-11-07T12:42:46.581Z,11.13
2022-11-07T12:45:19.184Z,11.68
2022-11-07T12:48:13.411Z,12.32
2022-11-07T12:50:45.580Z,13.80
2022-11-07T12:53:23.898Z,12.55
2022-11-07T12:55:55.791Z,12.68
2022-11-07T12:58:26.942Z,14.30
2022-11-07T13:00:55.886Z,15.20
2022-11-07T13:03:50.771Z,20.25
2022-11-07T13:06:24.891Z,9.93
2022-11-07T13:08:59.969Z,14.13
2022-11-07T13:11:33.272Z,11.63
2022-11-07T13:14:21.075Z,13.68
2022-11-07T13:16:54.430Z,13.77
2022-11-07T13:19:32.527Z,13.30
2022-11-07T13:22:03.810Z,13.38
2022-11-07T13:24:36.481Z,18.23
2022-11-07T13:27:16.705Z,16.60
2022-11-07T13:29:45.850Z,17.65
2022-11-07T13:32:16.018Z,18.38
2022-11-07T13:34:48.377Z,14.55
2022-11-07T13:37:20.425Z,17.92
2022-11-07T13:39:53.245Z,12.85
2022-11-07T13:42:24.081Z,23.23
2022-11-07T13:44:55.200Z,17.42
2022-11-07T13:47:28.506Z,16.08
2022-11-07T13:50:00.131Z,14.32
2022-11-07T13:52:36.898Z,12.98
2022-11-07T13:55:12.649Z,12.48
2022-11-07T13:57:43.115Z,18.70
2022-11-07T14:02:52.626Z,14.70
2022-11-07T14:05:24.027Z,13.30
2022-11-07T14:07:55.376Z,14.27
2022-11-07T14:10:28.028Z,11.38
2022-11-07T14:13:03.173Z,18.98
2022-11-07T14:15:32.174Z,10.38
2022-11-07T14:18:01.075Z,13.20
2022-11-07T14:20:29.920Z,11.90
2022-11-07T14:23:00.671Z,15.00
2022-11-07T14:30:31.623Z,13.27
2022-11-07T14:33:01.487Z,13.98
2022-11-07T14:35:33.434Z,21.30
2022-11-07T14:38:11.094Z,9.27
2022-11-07T14:40:42.692Z,12.50
2022-11-07T14:43:13.432Z,12.02
2022-11-07T14:46:11.320Z,16.35
2022-11-07T14:48:33.998Z,17.08
2022-11-07T14:51:03.241Z,16.65
2022-11-07T14:53:33.880Z,12.63
2022-11-07T14:56:06.090Z,16.10
2022-11-07T14:58:34.451Z,18.10
2022-11-07T15:01:14.114Z,15.98
2022-11-07T15:03:52.940Z,14.90
2022-11-07T15:06:24.768Z,15.63
2022-11-07T15:09:01.559Z,15.27
2022-11-07T15:11:33.745Z,13.65
2022-11-07T15:14:04.778Z,15.43
2022-11-07T15:16:35.518Z,15.55
2022-11-07T15:19:05.579Z,15.95
2022-11-07T15:21:36.050Z,15.77
2022-11-07T15:24:26.500Z,16.63
2022-11-07T15:29:33.901Z,16.98
2022-11-07T15:32:07.611Z,13.40
2022-11-07T15:34:58.746Z,17.52
2022-11-07T15:37:26.766Z,15.85
2022-11-07T15:39:55.734Z,18.00
2022-11-07T15:42:25.728Z,15.93
2022-11-07T15:44:54.414Z,14.95
2022-11-07T15:47:23.673Z,19.67
2022-11-07T15:49:52.267Z,14.57
2022-11-07T15:52:20.862Z,18.00
2022-11-07T15:54:49.547Z,15.13
2022-11-07T15:57:18.402Z,18.17
2022-11-07T15:59:48.489Z,19.65
2022-11-07T16:02:18.758Z,14.73
2022-11-07T16:04:47.149Z,18.60
2022-11-07T16:07:18.338Z,17.25
2022-11-07T16:09:48.910Z,18.20
2022-11-07T16:12:18.273Z,21.52
2022-11-07T16:14:48.243Z,24.67
2022-11-07T16:17:17.955Z,22.02
2022-11-07T16:19:48.035Z,23.73
2022-11-07T16:22:17.441Z,16.83
2022-11-07T16:24:46.052Z,15.52
2022-11-07T16:27:17.424Z,23.85
2022-11-07T16:29:46.195Z,18.98
2022-11-07T16:32:18.700Z,19.50
2022-11-07T16:34:47.889Z,18.63
2022-11-07T16:37:16.488Z,25.65
2022-11-07T16:39:45.232Z,19.58
2022-11-07T16:42:16.341Z,19.05
2022-11-07T16:44:45.250Z,16.60
2022-11-07T16:47:16.609Z,24.38
2022-11-07T16:49:44.890Z,19.95
2022-11-07T16:52:15.900Z,21.77
2022-11-07T16:54:44.760Z,23.38
2022-11-07T16:57:14.376Z,26.58
2022-11-07T16:59:43.778Z,17.30
2022-11-07T17:02:21.010Z,20.00
2022-11-07T17:04:50.131Z,25.92
2022-11-07T17:07:20.071Z,26.33
2022-11-07T17:09:48.966Z,20.33
2022-11-07T17:12:19.751Z,23.20
2022-11-07T17:14:48.555Z,24.48
2022-11-07T17:17:19.322Z,22.13
2022-11-07T17:22:16.562Z,22.23
2022-11-07T17:24:45.270Z,20.73
2022-11-07T17:27:24.115Z,22.13
2022-11-07T17:29:53.467Z,19.23
2022-11-07T17:32:23.511Z,18.10
2022-11-07T17:35:17.743Z,20.15
2022-11-07T17:37:40.499Z,18.85
2022-11-07T17:40:11.848Z,22.58
2022-11-07T17:42:40.451Z,20.30
2022-11-07T17:45:10.490Z,19.13
2022-11-07T17:47:40.530Z,24.08
2022-11-07T17:50:10.870Z,20.75
2022-11-07T17:52:39.242Z,21.20
2022-11-07T17:55:08.862Z,18.27
2022-11-07T17:57:38.200Z,20.03
2022-11-07T18:00:09.535Z,19.77
2022-11-07T18:02:38.398Z,20.17
2022-11-07T18:05:10.201Z,18.60
2022-11-07T18:07:40.910Z,19.20
2022-11-07T18:10:10.419Z,30.05
2022-11-07T18:12:39.250Z,20.50
2022-11-07T18:15:08.709Z,21.55
2022-11-07T18:17:37.387Z,21.08
2022-11-07T18:20:07.460Z,18.98
2022-11-07T18:22:38.182Z,18.70
2022-11-07T18:25:07.502Z,19.75
2022-11-07T18:27:36.691Z,21.60
2022-11-07T18:30:06.127Z,27.88
2022-11-07T18:32:36.845Z,17.08
2022-11-07T18:35:06.520Z,20.05
2022-11-07T18:37:36.246Z,18.55
2022-11-07T18:40:06.013Z,20.25
2022-11-07T18:42:34.620Z,19.05
2022-11-07T18:45:03.239Z,22.00
2022-11-07T18:47:33.949Z,15.55
2022-11-07T18:50:02.639Z,18.92
2022-11-07T18:52:31.485Z,17.27
2022-11-07T18:55:01.456Z,19.65
2022-11-07T18:57:30.021Z,22.58
2022-11-07T18:59:58.598Z,23.92
2022-11-07T19:02:28.706Z,21.50
2022-11-07T19:04:57.162Z,21.40
2022-11-07T19:07:25.836Z,16.48
2022-11-07T19:09:54.479Z,22.65
2022-11-07T19:12:24.435Z,20.75
2022-11-07T19:14:53.056Z,27.77
2022-11-07T19:17:21.687Z,23.80
2022-11-07T19:19:49.919Z,19.42
2022-11-07T19:22:18.559Z,19.17
2022-11-07T19:24:47.303Z,20.80
2022-11-07T19:27:15.875Z,25.58
2022-11-07T19:29:46.118Z,19.63
2022-11-07T19:32:15.089Z,19.75
2022-11-07T19:34:43.288Z,20.25
2022-11-07T19:37:12.073Z,17.02
2022-11-07T19:39:40.619Z,23.88
2022-11-07T19:42:09.212Z,23.45
2022-11-07T19:44:39.778Z,26.75
2022-11-07T19:47:10.785Z,24.60
2022-11-07T19:49:39.076Z,29.70
2022-11-07T19:52:07.707Z,31.30
2022-11-07T19:54:36.570Z,37.53
2022-11-07T19:57:05.429Z,35.17
2022-11-07T19:59:34.051Z,41.72
2022-11-07T20:02:31.004Z,45.50
2022-11-07T20:04:52.515Z,55.38
2022-11-07T20:07:21.177Z,54.90
2022-11-07T20:09:49.903Z,48.70
2022-11-07T20:12:18.565Z,47.05
2022-11-07T20:14:47.247Z,40.50
2022-11-07T20:17:16.639Z,32.38
2022-11-07T20:19:44.948Z,24.08
2022-11-07T20:22:15.003Z,31.45
2022-11-07T20:24:43.775Z,33.00
2022-11-07T20:27:12.410Z,32.55
2022-11-07T20:29:41.024Z,32.17
2022-11-07T20:32:11.466Z,27.92
2022-11-07T20:34:39.776Z,30.10
2022-11-07T20:37:08.358Z,28.40
2022-11-07T20:39:42.517Z,33.40
2022-11-07T20:42:11.176Z,27.55
2022-11-07T20:44:40.738Z,32.63
2022-11-07T20:47:09.374Z,29.10
2022-11-07T20:49:38.984Z,29.92
2022-11-07T20:52:08.171Z,33.90
2022-11-07T20:54:38.530Z,29.85
2022-11-07T20:57:07.565Z,32.47
2022-11-07T20:59:36.401Z,28.58
2022-11-07T21:02:05.169Z,28.00
2022-11-07T21:04:49.801Z,28.92
2022-11-07T21:07:23.853Z,32.00
2022-11-07T21:09:54.635Z,31.77
2022-11-07T21:12:23.469Z,27.98
2022-11-07T21:14:52.150Z,25.13
2022-11-07T21:17:20.722Z,30.95
2022-11-07T21:19:48.961Z,27.35
2022-11-07T21:22:17.543Z,26.77
2022-11-07T21:24:47.110Z,33.80
2022-11-07T21:27:17.115Z,27.42
2022-11-07T21:29:45.709Z,30.13
2022-11-07T21:32:14.275Z,29.08
2022-11-07T21:34:42.858Z,35.92
2022-11-07T21:37:11.482Z,35.33
2022-11-07T21:39:40.041Z,38.45
2022-11-07T21:42:08.631Z,24.90
2022-11-07T21:44:38.739Z,26.48
2022-11-07T21:47:07.378Z,25.55
2022-11-07T21:49:35.665Z,23.67
2022-11-07T21:52:04.344Z,22.48
2022-11-07T21:54:32.968Z,30.00
2022-11-07T21:57:01.864Z,25.60
2022-11-07T21:59:30.656Z,28.08
2022-11-07T22:02:00.930Z,29.95
2022-11-07T22:04:29.363Z,22.33
2022-11-07T22:06:57.945Z,28.55
2022-11-07T22:09:26.644Z,28.67
2022-11-07T22:11:55.370Z,30.30
2022-11-07T22:14:24.059Z,26.65
2022-11-07T22:16:52.364Z,29.48
2022-11-07T22:19:22.379Z,30.17
2022-11-07T22:21:51.040Z,28.77
2022-11-07T22:24:19.663Z,24.20
2022-11-07T22:26:48.477Z,31.38
2022-11-07T22:29:17.094Z,30.17
2022-11-07T22:31:45.347Z,26.85
2022-11-07T22:34:13.896Z,19.08
2022-11-07T22:36:43.877Z,26.85
2022-11-07T22:39:12.454Z,26.40
2022-11-07T22:41:41.113Z,27.48
2022-11-07T22:44:09.698Z,28.00
2022-11-07T22:46:38.094Z,29.58
2022-11-07T22:49:06.988Z,31.27
2022-11-07T22:51:36.434Z,28.02
2022-11-07T22:54:08.322Z,26.17
2022-11-07T22:56:38.031Z,31.13
2022-11-07T22:59:07.382Z,24.98
2022-11-07T23:01:38.443Z,21.75
2022-11-07T23:04:07.643Z,25.40
2022-11-07T23:06:36.516Z,29.73
2022-11-07T23:09:06.865Z,28.63
2022-11-07T23:14:21.910Z,28.25
2022-11-07T23:16:52.009Z,24.02
2022-11-07T23:19:22.510Z,28.73
2022-11-07T23:21:51.490Z,34.42
2022-11-07T23:24:21.893Z,26.65
2022-11-07T23:29:21.107Z,32.30
2022-11-07T23:34:19.089Z,28.33
2022-11-07T23:36:47.728Z,26.00
2022-11-07T23:39:17.648Z,27.98
2022-11-07T23:41:47.663Z,27.15
2022-11-07T23:44:16.763Z,25.92
2022-11-07T23:47:02.956Z,23.15
2022-11-07T23:49:49.175Z,26.35
2022-11-07T23:52:18.391Z,20.80
2022-11-07T23:55:04.595Z,25.38
2022-11-07T23:57:56.215Z,23.02
